createdAt,value
2023-03-17T00:00:47.309Z,65.30
2023-03-17T00:03:30.348Z,65.86
2023-03-17T00:06:00.500Z,65.00
2023-03-17T00:08:34.563Z,65.53
2023-03-17T00:11:02.776Z,64.99
2023-03-17T00:13:33.839Z,66.13
2023-03-17T00:16:07.600Z,65.97
2023-03-17T00:18:35.599Z,65.48
2023-03-17T00:21:03.201Z,65.57
2023-03-17T00:23:30.670Z,65.37
2023-03-17T00:25:58.207Z,65.31
2023-03-17T00:28:28.118Z,65.83
2023-03-17T00:31:01.076Z,65.56
2023-03-17T00:33:33.384Z,65.16
2023-03-17T00:36:01.788Z,64.46
2023-03-17T00:38:29.812Z,64.58
2023-03-17T00:40:57.312Z,64.32
2023-03-17T00:43:24.772Z,64.15
2023-03-17T00:45:52.398Z,64.06
2023-03-17T00:48:21.887Z,63.93
2023-03-17T00:50:51.049Z,64.31
2023-03-17T00:53:21.750Z,64.05
2023-03-17T00:55:50.103Z,63.88
2023-03-17T00:58:33.561Z,63.85
2023-03-17T01:01:02.370Z,63.72
2023-03-17T01:03:29.869Z,63.48
2023-03-17T01:05:57.973Z,63.56
2023-03-17T01:08:26.331Z,63.70
2023-03-17T01:10:54.719Z,64.42
2023-03-17T01:13:22.260Z,64.12
2023-03-17T01:15:51.380Z,65.23
2023-03-17T01:18:22.890Z,64.96
2023-03-17T01:20:51.896Z,64.99
2023-03-17T01:23:19.270Z,65.73
2023-03-17T01:25:46.867Z,65.93
2023-03-17T01:28:18.087Z,67.18
2023-03-17T01:30:47.086Z,67.71
2023-03-17T01:33:15.191Z,67.04
2023-03-17T01:35:45.946Z,66.96
2023-03-17T01:38:14.225Z,66.57
2023-03-17T01:40:50.645Z,66.26
2023-03-17T01:43:30.903Z,66.53
2023-03-17T01:46:31.194Z,66.91
2023-03-17T01:49:37.591Z,66.82
2023-03-17T01:52:21.975Z,67.25
2023-03-17T01:54:58.992Z,67.85
2023-03-17T01:57:56.573Z,67.68
2023-03-17T02:00:26.631Z,67.82
2023-03-17T02:02:57.137Z,67.87
2023-03-17T02:05:31.663Z,68.08
2023-03-17T02:08:00.260Z,69.01
2023-03-17T02:10:30.198Z,69.41
2023-03-17T02:13:05.710Z,68.64
2023-03-17T02:15:46.596Z,68.15
2023-03-17T02:18:15.100Z,68.47
2023-03-17T02:21:10.561Z,68.72
2023-03-17T02:23:38.102Z,68.69
2023-03-17T02:26:05.420Z,69.17
2023-03-17T02:28:34.437Z,69.05
2023-03-17T02:31:01.829Z,69.44
2023-03-17T02:33:29.362Z,69.51
2023-03-17T02:35:57.225Z,69.36
2023-03-17T02:38:24.834Z,69.14
2023-03-17T02:40:52.676Z,69.63
2023-03-17T02:43:20.782Z,69.21
2023-03-17T02:45:48.113Z,69.37
2023-03-17T02:48:16.106Z,69.38
2023-03-17T02:50:43.597Z,69.88
2023-03-17T02:53:11.309Z,69.64
2023-03-17T02:55:38.676Z,69.66
2023-03-17T02:58:06.281Z,69.32
2023-03-17T03:00:34.060Z,69.56
2023-03-17T03:03:01.629Z,69.55
2023-03-17T03:05:28.967Z,69.59
2023-03-17T03:07:56.593Z,69.85
2023-03-17T03:10:23.903Z,70.02
2023-03-17T03:12:52.166Z,69.46
2023-03-17T03:15:20.993Z,68.85
2023-03-17T03:17:48.659Z,69.24
2023-03-17T03:20:16.359Z,68.92
2023-03-17T03:22:43.965Z,68.61
2023-03-17T03:25:11.304Z,68.45
2023-03-17T03:27:38.837Z,68.49
2023-03-17T03:30:08.350Z,68.18
2023-03-17T03:32:35.911Z,69.14
2023-03-17T03:35:04.456Z,69.19
2023-03-17T03:37:32.068Z,69.49
2023-03-17T03:39:59.324Z,70.18
2023-03-17T03:42:26.918Z,70.15
2023-03-17T03:44:54.361Z,69.90
2023-03-17T03:47:21.990Z,70.43
2023-03-17T03:49:49.292Z,70.42
2023-03-17T03:52:16.884Z,70.11
2023-03-17T03:54:44.257Z,70.03
2023-03-17T03:57:12.059Z,70.65
2023-03-17T03:59:39.484Z,70.20
2023-03-17T04:02:09.536Z,71.06
2023-03-17T04:04:37.209Z,70.85
2023-03-17T04:07:04.942Z,71.04
2023-03-17T04:09:32.157Z,70.64
2023-03-17T04:11:59.987Z,70.15
2023-03-17T04:14:28.604Z,70.18
2023-03-17T04:16:56.361Z,69.72
2023-03-17T04:19:23.599Z,69.52
2023-03-17T04:21:53.579Z,69.55
2023-03-17T04:24:21.884Z,69.80
2023-03-17T04:26:49.450Z,70.27
2023-03-17T04:29:17.046Z,70.04
2023-03-17T04:31:44.747Z,70.52
2023-03-17T04:34:18.772Z,70.35
2023-03-17T04:36:48.378Z,70.34
2023-03-17T04:39:16.773Z,71.11
2023-03-17T04:41:44.321Z,71.26
2023-03-17T04:44:11.681Z,71.31
2023-03-17T04:46:39.401Z,71.10
2023-03-17T04:49:07.073Z,70.73
2023-03-17T04:51:36.880Z,70.28
2023-03-17T04:54:04.819Z,70.12
2023-03-17T04:56:32.705Z,70.33
2023-03-17T04:59:00.208Z,70.72
2023-03-17T05:01:27.921Z,70.51
2023-03-17T05:03:55.332Z,70.53
2023-03-17T05:06:23.079Z,70.02
2023-03-17T05:08:50.586Z,70.45
2023-03-17T05:11:18.471Z,70.67
2023-03-17T05:13:46.113Z,70.45
2023-03-17T05:16:13.969Z,70.43
2023-03-17T05:18:42.061Z,70.62
2023-03-17T05:21:10.689Z,70.71
2023-03-17T05:23:38.489Z,70.20
2023-03-17T05:26:06.722Z,70.20
2023-03-17T05:28:34.600Z,70.40
2023-03-17T05:31:02.663Z,69.97
2023-03-17T05:33:30.088Z,69.62
2023-03-17T05:35:57.681Z,69.69
2023-03-17T05:38:25.257Z,68.75
2023-03-17T05:40:52.996Z,68.15
2023-03-17T05:43:21.060Z,67.67
2023-03-17T05:45:50.703Z,67.40
2023-03-17T05:48:18.135Z,67.03
2023-03-17T05:50:46.043Z,66.17
2023-03-17T05:53:13.392Z,66.04
2023-03-17T05:55:41.558Z,65.62
2023-03-17T05:58:09.638Z,65.56
2023-03-17T06:00:37.909Z,65.17
2023-03-17T06:03:05.686Z,64.96
2023-03-17T06:05:33.875Z,64.40
2023-03-17T06:08:02.102Z,64.21
2023-03-17T06:10:29.953Z,64.11
2023-03-17T06:12:59.015Z,63.62
2023-03-17T06:15:26.728Z,62.22
2023-03-17T06:17:54.049Z,61.90
2023-03-17T06:20:22.108Z,61.38
2023-03-17T06:23:03.171Z,61.41
2023-03-17T06:25:35.579Z,61.23
2023-03-17T06:28:05.673Z,60.20
2023-03-17T06:30:35.425Z,60.19
2023-03-17T06:33:04.215Z,59.87
2023-03-17T06:35:33.410Z,59.25
2023-03-17T06:38:02.289Z,59.04
2023-03-17T06:40:30.599Z,58.71
2023-03-17T06:42:58.663Z,58.74
2023-03-17T06:45:26.772Z,58.34
2023-03-17T06:47:54.103Z,58.25
2023-03-17T06:50:21.902Z,58.19
2023-03-17T06:52:49.432Z,58.16
2023-03-17T06:55:17.659Z,57.93
2023-03-17T06:57:45.023Z,57.75
2023-03-17T07:00:14.329Z,57.12
2023-03-17T07:02:42.300Z,56.85
2023-03-17T07:05:10.245Z,57.17
2023-03-17T07:07:37.786Z,56.88
2023-03-17T07:10:07.060Z,56.46
2023-03-17T07:12:34.448Z,56.14
2023-03-17T07:15:02.148Z,55.82
2023-03-17T07:17:30.289Z,55.98
2023-03-17T07:19:57.841Z,55.75
2023-03-17T07:22:25.274Z,55.19
2023-03-17T07:24:53.339Z,54.44
2023-03-17T07:27:23.091Z,53.58
2023-03-17T07:29:51.364Z,52.56
2023-03-17T07:32:19.348Z,52.04
2023-03-17T07:34:46.879Z,48.56
2023-03-17T07:37:14.461Z,40.85
2023-03-17T07:39:42.082Z,35.15
2023-03-17T07:42:15.506Z,29.67
2023-03-17T07:44:43.394Z,27.58
2023-03-17T07:47:14.805Z,25.90
2023-03-17T07:49:42.664Z,21.91
2023-03-17T07:52:11.317Z,21.99
2023-03-17T07:54:42.657Z,18.97
2023-03-17T07:57:11.021Z,17.97
2023-03-17T07:59:41.732Z,16.66
2023-03-17T08:02:16.670Z,16.51
2023-03-17T08:04:46.033Z,15.37
2023-03-17T08:07:14.769Z,14.59
2023-03-17T08:09:42.788Z,13.71
2023-03-17T08:12:10.908Z,13.31
2023-03-17T08:14:38.479Z,13.21
2023-03-17T08:17:06.522Z,12.62
2023-03-17T08:19:34.181Z,12.07
2023-03-17T08:22:01.616Z,11.86
2023-03-17T08:24:29.530Z,11.15
2023-03-17T08:26:58.119Z,10.93
2023-03-17T08:29:28.503Z,10.64
2023-03-17T08:31:56.093Z,10.27
2023-03-17T08:34:24.409Z,10.33
2023-03-17T08:36:51.872Z,10.07
2023-03-17T08:39:20.634Z,9.18
2023-03-17T08:41:48.004Z,9.82
2023-03-17T08:44:16.713Z,9.23
2023-03-17T08:46:44.116Z,9.04
2023-03-17T08:49:13.003Z,8.89
2023-03-17T08:51:40.959Z,8.78
2023-03-17T08:54:08.829Z,8.25
2023-03-17T08:56:37.174Z,8.04
2023-03-17T08:59:07.190Z,7.59
2023-03-17T09:01:35.033Z,6.76
2023-03-17T09:04:03.319Z,7.07
2023-03-17T09:06:31.707Z,7.06
2023-03-17T09:09:00.477Z,7.45
2023-03-17T09:11:31.601Z,6.70
2023-03-17T09:14:00.240Z,6.74
2023-03-17T09:16:29.017Z,6.85
2023-03-17T09:18:56.721Z,6.56
2023-03-17T09:21:24.040Z,6.36
2023-03-17T09:23:51.634Z,6.65
2023-03-17T09:26:20.306Z,6.66
2023-03-17T09:28:47.948Z,5.96
2023-03-17T09:31:15.721Z,5.85
2023-03-17T09:33:43.960Z,6.02
2023-03-17T09:36:11.455Z,5.90
2023-03-17T09:38:39.717Z,5.42
2023-03-17T09:41:53.828Z,5.82
2023-03-17T09:44:38.630Z,5.64
2023-03-17T09:47:43.649Z,5.79
2023-03-17T09:50:22.747Z,5.72
2023-03-17T09:52:52.404Z,5.52
2023-03-17T09:55:32.973Z,5.97
2023-03-17T09:58:03.605Z,6.79
2023-03-17T10:00:31.892Z,6.34
2023-03-17T10:03:00.304Z,6.54
2023-03-17T10:05:36.867Z,6.14
2023-03-17T10:08:35.839Z,5.86
2023-03-17T10:11:16.951Z,6.18
2023-03-17T10:14:09.536Z,6.25
2023-03-17T10:17:09.405Z,6.44
2023-03-17T10:19:47.648Z,6.30
2023-03-17T10:22:28.038Z,6.43
2023-03-17T10:25:04.090Z,6.40
2023-03-17T10:27:37.623Z,6.54
2023-03-17T10:30:21.275Z,6.55
2023-03-17T10:32:50.514Z,7.28
2023-03-17T10:35:19.027Z,7.85
2023-03-17T10:37:48.385Z,7.80
2023-03-17T10:40:28.868Z,7.50
2023-03-17T10:43:07.813Z,7.41
2023-03-17T10:45:43.301Z,7.10
2023-03-17T10:48:20.323Z,7.48
2023-03-17T10:50:49.535Z,7.08
2023-03-17T10:53:30.602Z,6.79
2023-03-17T10:56:10.474Z,6.92
2023-03-17T10:58:49.198Z,6.43
2023-03-17T11:01:39.777Z,6.71
2023-03-17T11:04:35.834Z,6.96
2023-03-17T11:07:20.455Z,6.95
2023-03-17T11:09:57.376Z,7.23
2023-03-17T11:12:40.132Z,7.24
2023-03-17T11:15:17.861Z,7.27
2023-03-17T11:18:03.451Z,7.17
2023-03-17T11:20:54.852Z,7.68
2023-03-17T11:23:50.152Z,7.53
2023-03-17T11:26:54.742Z,7.23
2023-03-17T11:29:39.919Z,7.27
2023-03-17T11:32:32.545Z,7.11
2023-03-17T11:35:24.012Z,7.12
2023-03-17T11:38:21.322Z,7.48
2023-03-17T11:41:27.287Z,7.51
2023-03-17T11:44:22.183Z,7.07
2023-03-17T11:47:31.937Z,7.91
2023-03-17T11:50:18.661Z,8.08
2023-03-17T11:53:11.643Z,7.98
2023-03-17T11:56:06.770Z,8.17
2023-03-17T11:58:42.608Z,8.20
2023-03-17T12:01:44.266Z,8.45
2023-03-17T12:04:25.957Z,8.13
2023-03-17T12:07:04.559Z,8.14
2023-03-17T12:09:47.408Z,8.48
2023-03-17T12:12:28.163Z,8.53
2023-03-17T12:14:59.661Z,8.68
2023-03-17T12:17:50.952Z,8.53
2023-03-17T12:20:31.632Z,9.08
2023-03-17T12:23:30.168Z,9.89
2023-03-17T12:26:07.560Z,9.29
2023-03-17T12:28:48.625Z,9.66
2023-03-17T12:31:32.008Z,9.59
2023-03-17T12:34:28.859Z,8.94
2023-03-17T12:36:56.359Z,9.02
2023-03-17T12:39:35.146Z,9.12
2023-03-17T12:42:36.574Z,9.40
2023-03-17T12:45:22.502Z,9.96
2023-03-17T12:48:21.495Z,10.18
2023-03-17T12:51:12.543Z,10.72
2023-03-17T12:53:45.114Z,9.66
2023-03-17T12:56:19.326Z,10.10
2023-03-17T12:58:51.829Z,10.96
2023-03-17T13:01:32.946Z,11.55
2023-03-17T13:04:14.015Z,11.26
2023-03-17T13:06:53.679Z,10.86
2023-03-17T13:09:45.283Z,11.68
2023-03-17T13:12:41.668Z,11.98
2023-03-17T13:15:38.209Z,12.06
2023-03-17T13:18:17.801Z,12.14
2023-03-17T13:20:57.510Z,12.25
2023-03-17T13:24:15.881Z,12.44
2023-03-17T13:27:02.140Z,12.86
2023-03-17T13:29:35.582Z,13.08
2023-03-17T13:32:26.818Z,12.91
2023-03-17T13:35:02.276Z,12.82
2023-03-17T13:37:58.925Z,12.60
2023-03-17T13:41:07.105Z,13.26
2023-03-17T13:44:26.773Z,12.86
2023-03-17T13:46:54.858Z,13.41
2023-03-17T13:49:32.563Z,13.77
2023-03-17T13:52:13.654Z,13.71
2023-03-17T13:55:19.027Z,13.46
2023-03-17T13:58:11.159Z,13.45
2023-03-17T14:00:49.483Z,13.31
2023-03-17T14:03:43.918Z,14.07
2023-03-17T14:06:14.425Z,13.67
2023-03-17T14:08:55.083Z,13.71
2023-03-17T14:11:35.569Z,14.43
2023-03-17T14:14:33.041Z,14.26
2023-03-17T14:17:12.424Z,14.17
2023-03-17T14:19:41.894Z,14.53
2023-03-17T14:22:45.916Z,14.37
2023-03-17T14:25:21.656Z,14.51
2023-03-17T14:27:57.018Z,14.88
2023-03-17T14:30:33.156Z,15.74
2023-03-17T14:33:20.571Z,15.93
2023-03-17T14:35:53.937Z,15.55
2023-03-17T14:38:31.304Z,15.24
2023-03-17T14:41:07.995Z,15.42
2023-03-17T14:43:36.905Z,15.73
2023-03-17T14:46:08.183Z,15.16
2023-03-17T14:48:40.352Z,15.29
2023-03-17T14:51:14.501Z,15.26
2023-03-17T14:53:46.573Z,16.70
2023-03-17T14:56:14.698Z,16.22
2023-03-17T14:58:48.612Z,16.37
2023-03-17T15:01:32.540Z,16.38
2023-03-17T15:04:06.319Z,16.58
2023-03-17T15:06:37.424Z,16.97
2023-03-17T15:09:38.566Z,17.53
2023-03-17T15:12:26.712Z,18.18
2023-03-17T15:15:00.842Z,17.88
2023-03-17T15:17:34.857Z,18.56
2023-03-17T15:20:07.615Z,18.44
2023-03-17T15:22:35.369Z,18.83
2023-03-17T15:25:17.439Z,19.43
2023-03-17T15:27:45.842Z,19.61
2023-03-17T15:30:14.857Z,19.88
2023-03-17T15:32:42.790Z,20.06
2023-03-17T15:35:14.592Z,20.44
2023-03-17T15:37:42.828Z,21.23
2023-03-17T15:40:11.367Z,21.05
2023-03-17T15:42:39.870Z,20.90
2023-03-17T15:45:08.625Z,21.11
2023-03-17T15:47:40.035Z,21.63
2023-03-17T15:50:30.331Z,21.11
2023-03-17T15:52:58.121Z,21.19
2023-03-17T15:55:31.194Z,21.85
2023-03-17T15:57:59.814Z,21.59
2023-03-17T16:00:30.356Z,22.33
2023-03-17T16:03:18.833Z,22.39
2023-03-17T16:05:46.645Z,22.19
2023-03-17T16:08:15.760Z,22.24
2023-03-17T16:10:43.401Z,22.33
2023-03-17T16:13:11.926Z,22.63
2023-03-17T16:15:43.435Z,23.05
2023-03-17T16:18:18.347Z,23.30
2023-03-17T16:20:52.435Z,23.06
2023-03-17T16:23:27.202Z,22.90
2023-03-17T16:25:59.273Z,22.95
2023-03-17T16:28:33.045Z,23.17
2023-03-17T16:31:04.033Z,23.36
2023-03-17T16:33:40.403Z,23.55
2023-03-17T16:36:14.646Z,24.13
2023-03-17T16:38:42.745Z,24.24
2023-03-17T16:41:21.714Z,24.28
2023-03-17T16:43:59.599Z,24.58
2023-03-17T16:46:33.360Z,24.25
2023-03-17T16:49:02.282Z,24.50
2023-03-17T16:51:29.650Z,24.60
2023-03-17T16:53:57.288Z,24.81
2023-03-17T16:56:27.581Z,25.01
2023-03-17T16:58:55.300Z,25.58
2023-03-17T17:01:27.370Z,25.38
2023-03-17T17:03:56.112Z,25.52
2023-03-17T17:06:24.452Z,25.43
2023-03-17T17:08:52.985Z,25.86
2023-03-17T17:11:21.514Z,26.16
2023-03-17T17:13:50.167Z,25.81
2023-03-17T17:16:32.165Z,27.21
2023-03-17T17:19:01.334Z,26.64
2023-03-17T17:21:29.119Z,27.38
2023-03-17T17:23:57.093Z,27.40
2023-03-17T17:26:24.447Z,28.53
2023-03-17T17:28:52.209Z,28.02
2023-03-17T17:31:19.688Z,28.39
2023-03-17T17:33:47.346Z,28.47
2023-03-17T17:36:17.608Z,28.83
2023-03-17T17:38:45.452Z,29.09
2023-03-17T17:41:14.334Z,29.19
2023-03-17T17:43:42.141Z,29.65
2023-03-17T17:46:17.234Z,29.58
2023-03-17T17:48:45.393Z,30.54
2023-03-17T17:51:12.870Z,30.07
2023-03-17T17:53:41.005Z,30.39
2023-03-17T17:56:14.228Z,30.47
2023-03-17T17:58:43.134Z,30.69
2023-03-17T18:01:14.026Z,30.60
2023-03-17T18:03:43.086Z,30.48
2023-03-17T18:06:13.185Z,30.28
2023-03-17T18:08:41.557Z,30.37
2023-03-17T18:11:09.209Z,30.44
2023-03-17T18:13:39.088Z,30.43
2023-03-17T18:16:10.158Z,30.24
2023-03-17T18:18:40.736Z,30.54
2023-03-17T18:21:08.977Z,30.40
2023-03-17T18:23:36.727Z,30.73
2023-03-17T18:26:08.881Z,30.44
2023-03-17T18:28:36.829Z,30.50
2023-03-17T18:31:11.905Z,30.17
2023-03-17T18:33:43.564Z,30.64
2023-03-17T18:36:11.780Z,30.13
2023-03-17T18:38:40.525Z,30.41
2023-03-17T18:41:08.534Z,30.34
2023-03-17T18:43:36.220Z,30.30
2023-03-17T18:46:04.364Z,30.56
2023-03-17T18:48:32.012Z,30.99
2023-03-17T18:50:59.355Z,30.68
2023-03-17T18:53:27.151Z,30.80
2023-03-17T18:55:54.407Z,30.90
2023-03-17T18:58:21.984Z,30.97
2023-03-17T19:00:50.372Z,31.51
2023-03-17T19:03:18.842Z,31.49
2023-03-17T19:05:46.287Z,31.96
2023-03-17T19:08:16.131Z,32.25
2023-03-17T19:10:44.824Z,32.28
2023-03-17T19:13:14.302Z,32.73
2023-03-17T19:15:42.166Z,32.61
2023-03-17T19:18:09.861Z,33.08
2023-03-17T19:20:37.957Z,33.37
2023-03-17T19:23:06.023Z,33.92
2023-03-17T19:25:33.606Z,34.38
2023-03-17T19:28:03.287Z,34.01
2023-03-17T19:30:31.432Z,33.71
2023-03-17T19:32:59.299Z,34.06
2023-03-17T19:35:27.262Z,33.97
2023-03-17T19:37:54.907Z,33.87
2023-03-17T19:40:22.565Z,33.98
2023-03-17T19:42:51.171Z,34.05
2023-03-17T19:45:18.690Z,34.14
2023-03-17T19:47:47.133Z,34.13
2023-03-17T19:50:14.874Z,34.13
2023-03-17T19:52:42.610Z,34.30
2023-03-17T19:55:10.829Z,34.45
2023-03-17T19:57:39.061Z,34.64
2023-03-17T20:00:08.972Z,34.79
2023-03-17T20:02:36.848Z,34.63
2023-03-17T20:05:04.764Z,34.56
2023-03-17T20:07:33.097Z,34.74
2023-03-17T20:10:01.478Z,34.82
2023-03-17T20:12:32.964Z,35.00
2023-03-17T20:15:01.575Z,34.88
2023-03-17T20:17:29.277Z,35.02
2023-03-17T20:19:56.658Z,35.08
2023-03-17T20:22:24.743Z,34.99
2023-03-17T20:24:52.248Z,35.39
2023-03-17T20:27:20.597Z,35.38
2023-03-17T20:29:48.689Z,35.74
2023-03-17T20:32:17.402Z,36.87
2023-03-17T20:34:45.171Z,36.30
2023-03-17T20:37:14.296Z,36.16
2023-03-17T20:39:42.426Z,36.31
2023-03-17T20:42:14.577Z,36.51
2023-03-17T20:44:43.039Z,36.89
2023-03-17T20:47:11.496Z,36.90
2023-03-17T20:49:39.471Z,37.60
2023-03-17T20:52:08.571Z,37.36
2023-03-17T20:54:36.097Z,37.77
2023-03-17T20:57:04.878Z,37.59
2023-03-17T20:59:33.807Z,38.21
2023-03-17T21:02:02.501Z,38.19
2023-03-17T21:04:29.933Z,38.32
2023-03-17T21:06:57.595Z,38.39
2023-03-17T21:09:25.014Z,38.87
2023-03-17T21:11:52.619Z,39.49
2023-03-17T21:14:19.951Z,39.12
2023-03-17T21:16:47.940Z,39.27
2023-03-17T21:19:17.249Z,39.20
2023-03-17T21:21:45.800Z,39.24
2023-03-17T21:24:35.058Z,40.28
2023-03-17T21:27:06.589Z,39.67
2023-03-17T21:29:36.233Z,39.85
2023-03-17T21:32:07.275Z,40.19
2023-03-17T21:34:35.616Z,39.65
2023-03-17T21:37:03.380Z,40.10
2023-03-17T21:39:30.886Z,40.14
2023-03-17T21:41:58.488Z,40.10
2023-03-17T21:44:26.573Z,40.17
2023-03-17T21:46:56.586Z,40.06
2023-03-17T21:49:24.914Z,40.21
2023-03-17T21:51:52.331Z,40.28
2023-03-17T21:54:20.646Z,40.28
2023-03-17T21:56:49.562Z,40.61
2023-03-17T21:59:19.121Z,40.56
2023-03-17T22:01:47.379Z,40.52
2023-03-17T22:04:15.635Z,40.35
2023-03-17T22:06:43.461Z,40.98
2023-03-17T22:09:11.139Z,40.43
2023-03-17T22:11:38.528Z,40.71
2023-03-17T22:14:06.608Z,40.98
2023-03-17T22:16:34.136Z,40.97
2023-03-17T22:19:01.969Z,40.74
2023-03-17T22:21:29.237Z,41.26
2023-03-17T22:23:57.115Z,41.29
2023-03-17T22:26:24.391Z,41.16
2023-03-17T22:28:52.126Z,41.56
2023-03-17T22:31:27.313Z,41.15
2023-03-17T22:33:58.326Z,41.42
2023-03-17T22:36:27.188Z,41.92
2023-03-17T22:38:56.242Z,42.02
2023-03-17T22:41:27.235Z,41.35
2023-03-17T22:43:55.246Z,41.76
2023-03-17T22:46:22.830Z,42.05
2023-03-17T22:48:51.877Z,42.25
2023-03-17T22:51:23.570Z,42.90
2023-03-17T22:53:52.194Z,42.09
2023-03-17T22:56:20.448Z,42.32
2023-03-17T22:58:48.992Z,42.58
2023-03-17T23:01:18.398Z,42.33
2023-03-17T23:03:47.193Z,42.41
2023-03-17T23:06:15.155Z,42.68
2023-03-17T23:08:44.401Z,42.94
2023-03-17T23:11:18.674Z,42.35
2023-03-17T23:13:47.802Z,42.65
2023-03-17T23:16:15.993Z,42.89
2023-03-17T23:18:46.867Z,42.79
2023-03-17T23:21:30.606Z,43.73
2023-03-17T23:23:59.625Z,43.35
2023-03-17T23:26:28.786Z,43.10
2023-03-17T23:28:56.675Z,42.87
2023-03-17T23:31:24.887Z,42.66
2023-03-17T23:33:52.804Z,42.88
2023-03-17T23:36:21.478Z,42.69
2023-03-17T23:38:49.987Z,43.07
2023-03-17T23:41:17.751Z,43.41
2023-03-17T23:43:46.880Z,43.47
2023-03-17T23:46:14.813Z,43.67
2023-03-17T23:48:43.111Z,44.35
2023-03-17T23:51:12.568Z,44.23
2023-03-17T23:53:41.807Z,43.85
2023-03-17T23:56:11.569Z,44.08
2023-03-17T23:58:43.410Z,44.56
